• Join FlightAware (Why Join?)
  • Login
  • US Flag 
04:21AM EST


 

Airport Tracker/Info


-or-


 

Live Flight TrackerFlight Track Log ✈ DAL6055 ✈ 12-Apr-2013 ✈ KDTW - KSDF

Flight Track Log - Related Links

Times and Time Zones

All times are in EDT time to prevent confusion due to time zone crossing. See the DAL6055 flight status page for this flight to view local times or setup timezone preferences in your user account.

Time Position Orientation Groundspeed Altitude Reporting Facility
EDT Latitude Longitude Course Direction KTS MPH feet Rate Location/Type
09:22AM 42.2017 -83.3553 184° South 157 181 1,200  Level Cleveland Center
09:22AM 42.1936 -83.3561 184° South 163 188 1,700 1,980 Climbing FAA TRACON SMA TRACON (SMA)
09:23AM 42.1775 -83.3597 189° South 176 203 2,400 1,920 Climbing FAA TRACON SMA TRACON (SMA)
09:23AM 42.1611 -83.3642 191° South 191 220 3,000 1,920 Climbing FAA TRACON SMA TRACON (SMA)
09:23AM 42.1397 -83.3683 188° South 212 244 3,700 1,620 Climbing FAA TRACON SMA TRACON (SMA)
09:23AM 42.1219 -83.3714 187° South 230 265 4,100 2,100 Climbing FAA TRACON SMA TRACON (SMA)
09:24AM 42.1019 -83.3758 189° South 226 260 5,100 2,160 Climbing FAA TRACON SMA TRACON (SMA)
09:24AM 42.0806 -83.3808 190° South 239 275 5,600 2,280 Climbing FAA TRACON SMA TRACON (SMA)
09:24AM 42.0547 -83.3808 180° South 240 276 6,600 2,820 Climbing FAA TRACON SMA TRACON (SMA)
09:25AM 42.0336 -83.3789 176° South 245 282 7,500 2,400 Climbing FAA TRACON SMA TRACON (SMA)
09:25AM 42.0128 -83.3767 175° South 244 281 8,200 2,100 Climbing FAA TRACON SMA TRACON (SMA)
09:26AM 41.9864 -83.3739 176° South 247 284 8,900 2,040 Climbing FAA TRACON SMA TRACON (SMA)
09:26AM 41.9642 -83.3719 176° South 254 292 9,600 1,680 Climbing FAA TRACON SMA TRACON (SMA)
09:26AM 41.9414 -83.3694 175° South 262 302 10,000 900 Climbing FAA TRACON SMA TRACON (SMA)
09:27AM 41.9100 -83.3664 176° South 292 336 10,200 720 Climbing FAA TRACON SMA TRACON (SMA)
09:27AM 41.8842 -83.3636 175° South 302 348 10,500 1,020 Climbing FAA TRACON SMA TRACON (SMA)
09:27AM 41.8575 -83.3611 176° South 310 357 10,900 1,020 Climbing FAA TRACON SMA TRACON (SMA)
09:28AM 41.8231 -83.3575 176° South 320 368 11,200 1,020 Climbing FAA TRACON SMA TRACON (SMA)
09:28AM 41.7950 -83.3547 176° South 326 375 11,600 1,020 Climbing FAA TRACON SMA TRACON (SMA)
09:28AM 41.7661 -83.3519 176° South 332 382 11,900 1,200 Climbing FAA TRACON SMA TRACON (SMA)
09:28AM 41.7300 -83.3481 175° South 338 389 12,400 1,320 Climbing FAA TRACON SMA TRACON (SMA)
09:29AM 41.7006 -83.3444 175° South 341 392 12,800 1,200 Climbing FAA TRACON SMA TRACON (SMA)
09:29AM 41.6711 -83.3419 176° South 343 395 13,200 1,500 Climbing FAA TRACON SMA TRACON (SMA)
09:30AM 41.6339 -83.3400 178° South 345 397 13,800 1,440 Climbing FAA TRACON SMA TRACON (SMA)
09:30AM 41.6044 -83.3383 178° South 346 398 14,200 1,380 Climbing FAA TRACON SMA TRACON (SMA)
09:30AM 41.5747 -83.3372 178° South 345 397 14,700 1,500 Climbing FAA TRACON SMA TRACON (SMA)
09:31AM 41.5381 -83.3364 179° South 344 396 15,200 1,500 Climbing FAA TRACON SMA TRACON (SMA)
09:31AM 41.5103 -83.3447 193° South 327 376 15,700 1,500 Climbing FAA TRACON SMA TRACON (SMA)
09:31AM 41.4844 -83.3600 204° Southwest 334 384 16,200 1,440 Climbing FAA TRACON SMA TRACON (SMA)
09:32AM 41.4564 -83.3758 203° Southwest 329 379 16,700 1,500 Climbing FAA TRACON SMA TRACON (SMA)
09:32AM 41.4256 -83.3911 200° South 328 377 17,200 1,500 Climbing FAA TRACON SMA TRACON (SMA)
09:32AM 41.3983 -83.4092 206° Southwest 328 377 17,700 1,800 Climbing FAA TRACON SMA TRACON (SMA)
09:32AM 41.3725 -83.4239 203° Southwest 327 376 18,400 1,920 Climbing FAA TRACON SMA TRACON (SMA)
09:33AM 41.3425 -83.4397 202° Southwest 327 376 19,000 840 Climbing FAA TRACON SMA TRACON (SMA)
09:33AM 41.3425 -83.4397 270° West 327 376 19,000  Level FAA TRACON SMA TRACON (SMA)
09:34AM 41.3425 -83.4397 270° West 327 376 19,000 1,860 Level FAA TRACON SMA TRACON (SMA)
09:34AM 41.2219 -83.5094 204° Southwest 333 383 21,000 1,980 Climbing Cleveland Center
09:35AM 41.1394 -83.5581 204° Southwest 333 383 22,500 1,080 Climbing Cleveland Center
09:37AM 40.9947 -83.6408 203° Southwest 338 389 24,000 540 Climbing Indianapolis Center
09:38AM 40.9003 -83.6950 203° Southwest 365 420 24,000  Level Indianapolis Center
09:39AM 40.8011 -83.7511 203° Southwest 383 441 24,000  Level Indianapolis Center
09:40AM 40.6992 -83.8097 204° Southwest 395 455 24,000  Level Indianapolis Center
09:41AM 40.5972 -83.8681 203° Southwest 396 456 24,000  Level Indianapolis Center
09:42AM 40.4961 -83.9247 203° Southwest 394 453 24,000  Level Indianapolis Center
09:43AM 40.3783 -83.9917 203° Southwest 393 452 24,000  Level Indianapolis Center
09:44AM 40.2775 -84.0486 203° Southwest 392 451 24,000  Level Indianapolis Center
09:45AM 40.1744 -84.1025 202° Southwest 395 455 24,000  Level Indianapolis Center
09:46AM 40.0719 -84.1575 202° Southwest 396 456 24,000  Level Indianapolis Center
09:47AM 39.9700 -84.2103 202° Southwest 395 455 24,000  Level Indianapolis Center
09:48AM 39.8672 -84.2639 202° Southwest 396 456 24,000 -300 Level Indianapolis Center
09:49AM 39.7489 -84.3264 202° Southwest 392 451 23,500 -780 Descending Indianapolis Center
09:50AM 39.6472 -84.3792 202° Southwest 391 450 22,500 -720 Descending Indianapolis Center
09:51AM 39.5478 -84.4294 201° Southwest 384 442 22,000 -240 Descending Indianapolis Center
09:52AM 39.4486 -84.4811 202° Southwest 382 440 22,000  Level Indianapolis Center
09:54AM 39.3486 -84.5344 202° Southwest 385 443 22,000  Level Indianapolis Center
09:55AM 39.2472 -84.5842 201° Southwest 386 444 22,000  Level Indianapolis Center
09:56AM 39.1489 -84.6356 202° Southwest 380 437 22,000 -900 Level Indianapolis Center
09:57AM 39.0339 -84.6942 202° Southwest 379 436 20,200 -1,980 Descending Indianapolis Center
09:57AM 38.9833 -84.7333 211° Southwest 367 422 18,700 -2,340 Descending Cincinnati TRACON
09:58AM 38.9500 -84.7667 218° Southwest 361 415 17,700 -2,100 Descending Cincinnati TRACON
09:59AM 38.8667 -84.8333 212° Southwest 346 398 15,800 -1,980 Descending Cincinnati TRACON
10:00AM 38.7833 -84.9167 218° Southwest 347 399 13,800 -1,740 Descending Cincinnati TRACON
10:01AM 38.7167 -85.0000 224° Southwest 338 389 12,400 -900 Descending Cincinnati TRACON
10:02AM 38.6331 -85.0733 214° Southwest 337 388 12,000 -240 Descending Indianapolis Center
10:03AM 38.5597 -85.1436 217° Southwest 331 381 12,000 -240 Level Indianapolis Center
10:03AM 38.5092 -85.1917 217° Southwest 329 379 11,600 -840 Descending FAA TRACON SMA TRACON (SMA)
10:04AM 38.4814 -85.2183 217° Southwest 326 375 11,200 -1,080 Descending FAA TRACON SMA TRACON (SMA)
10:04AM 38.4592 -85.2394 217° Southwest 325 374 10,900 -900 Descending FAA TRACON SMA TRACON (SMA)
10:04AM 38.4444 -85.2678 236° Southwest 320 368 10,600 -1,080 Descending FAA TRACON SMA TRACON (SMA)
10:05AM 38.4425 -85.3008 266° West 316 364 10,200 -900 Descending FAA TRACON SMA TRACON (SMA)
10:05AM 38.4419 -85.3389 269° West 291 335 10,000 -600 Descending FAA TRACON SMA TRACON (SMA)
10:05AM 38.4417 -85.3658 269° West 261 300 9,800 -1,200 Descending FAA TRACON SMA TRACON (SMA)
10:06AM 38.4428 -85.3919 273° West 244 281 9,200 -2,100 Descending FAA TRACON SMA TRACON (SMA)
10:06AM 38.4428 -85.4244 270° West 238 274 8,400 -1,980 Descending FAA TRACON SMA TRACON (SMA)
10:06AM 38.4428 -85.4503 270° West 237 273 7,900 -1,560 Descending FAA TRACON SMA TRACON (SMA)
10:07AM 38.4414 -85.4747 266° West 233 268 7,400 -1,980 Descending FAA TRACON SMA TRACON (SMA)
10:07AM 38.4364 -85.5047 258° West 225 259 6,600 -1,980 Descending FAA TRACON SMA TRACON (SMA)
10:07AM 38.4314 -85.5283 255° West 225 259 6,100 -900 Descending FAA TRACON SMA TRACON (SMA)
10:08AM 38.4239 -85.5578 252° West 226 260 6,000 -180 Descending FAA TRACON SMA TRACON (SMA)
10:08AM 38.4181 -85.5808 252° West 225 259 6,000 -180 Level FAA TRACON SMA TRACON (SMA)
10:08AM 38.4122 -85.6039 252° West 222 255 5,900 -1,200 Descending FAA TRACON SMA TRACON (SMA)
10:09AM 38.4050 -85.6319 252° West 218 251 5,200 -1,800 Descending FAA TRACON SMA TRACON (SMA)
10:09AM 38.3997 -85.6542 253° West 216 249 4,700 -1,500 Descending FAA TRACON SMA TRACON (SMA)
10:10AM 38.3950 -85.6775 256° West 219 252 4,200 -1,080 Descending FAA TRACON SMA TRACON (SMA)
10:10AM 38.3881 -85.7067 253° West 223 257 4,000 -480 Descending FAA TRACON SMA TRACON (SMA)
10:10AM 38.3739 -85.7222 221° Southwest 231 266 3,900 -600 Descending FAA TRACON SMA TRACON (SMA)
10:10AM 38.3542 -85.7275 192° South 234 269 3,600 -900 Descending FAA TRACON SMA TRACON (SMA)
10:11AM 38.3344 -85.7328 192° South 235 270 3,300 -600 Descending FAA TRACON SMA TRACON (SMA)
10:11AM 38.3114 -85.7397 193° South 224 258 3,200 -600 Descending FAA TRACON SMA TRACON (SMA)
10:11AM 38.2944 -85.7447 193° South 208 239 2,900 -1,080 Descending FAA TRACON SMA TRACON (SMA)
10:12AM 38.2775 -85.7489 191° South 200 230 2,500 -1,380 Descending FAA TRACON SMA TRACON (SMA)
10:12AM 38.2572 -85.7531 189° South 195 224 2,000 -1,080 Descending FAA TRACON SMA TRACON (SMA)
10:12AM 38.2428 -85.7503 171° South 180 207 1,800 -900 Descending FAA TRACON SMA TRACON (SMA)
10:13AM 38.2269 -85.7450 165° South 154 177 1,400 -900 Descending FAA TRACON SMA TRACON (SMA)
10:13AM 38.2150 -85.7408 165° South 143 165 1,200 -780 Descending FAA TRACON SMA TRACON (SMA)
10:14AM 38.2039 -85.7369 165° South 139 160 900 -780 Descending FAA TRACON SMA TRACON (SMA)
10:14AM 38.1922 -85.7331 165° South 139 160 700 -660 Descending FAA TRACON SMA TRACON (SMA)